sensor_id;sensor_type;location;lat;lon;timestamp;P1;durP1;ratioP1;P2;durP2;ratioP2
65751;SDS011;52486;51.098;13.770;2023-05-07T00:01:55;2.95;;;2.10;;
65751;SDS011;52486;51.098;13.770;2023-05-07T00:04:21;3.42;;;2.10;;
65751;SDS011;52486;51.098;13.770;2023-05-07T00:06:46;2.13;;;2.03;;
65751;SDS011;52486;51.098;13.770;2023-05-07T00:09:12;2.10;;;2.00;;
65751;SDS011;52486;51.098;13.770;2023-05-07T00:11:38;2.20;;;2.00;;
65751;SDS011;52486;51.098;13.770;2023-05-07T00:14:03;2.30;;;2.10;;
65751;SDS011;52486;51.098;13.770;2023-05-07T00:16:29;2.03;;;1.83;;
65751;SDS011;52486;51.098;13.770;2023-05-07T00:18:55;2.47;;;1.85;;
65751;SDS011;52486;51.098;13.770;2023-05-07T00:21:20;2.17;;;1.77;;
65751;SDS011;52486;51.098;13.770;2023-05-07T00:23:46;1.95;;;1.85;;
65751;SDS011;52486;51.098;13.770;2023-05-07T00:26:12;2.13;;;1.90;;
65751;SDS011;52486;51.098;13.770;2023-05-07T00:28:38;2.47;;;2.03;;
65751;SDS011;52486;51.098;13.770;2023-05-07T00:31:04;2.15;;;1.95;;
65751;SDS011;52486;51.098;13.770;2023-05-07T00:33:30;2.00;;;1.90;;
65751;SDS011;52486;51.098;13.770;2023-05-07T00:35:55;2.28;;;1.92;;
65751;SDS011;52486;51.098;13.770;2023-05-07T00:38:21;2.33;;;2.13;;
65751;SDS011;52486;51.098;13.770;2023-05-07T00:40:47;1.90;;;1.80;;
65751;SDS011;52486;51.098;13.770;2023-05-07T00:43:13;2.30;;;2.10;;
65751;SDS011;52486;51.098;13.770;2023-05-07T00:45:38;2.42;;;2.22;;
65751;SDS011;52486;51.098;13.770;2023-05-07T00:48:04;2.10;;;2.00;;
65751;SDS011;52486;51.098;13.770;2023-05-07T00:50:31;2.45;;;2.25;;
65751;SDS011;52486;51.098;13.770;2023-05-07T00:52:58;2.25;;;2.05;;
65751;SDS011;52486;51.098;13.770;2023-05-07T00:55:24;2.78;;;2.00;;
65751;SDS011;52486;51.098;13.770;2023-05-07T00:57:50;2.00;;;1.80;;
65751;SDS011;52486;51.098;13.770;2023-05-07T01:00:16;2.35;;;2.15;;
65751;SDS011;52486;51.098;13.770;2023-05-07T01:02:43;2.42;;;2.22;;
65751;SDS011;52486;51.098;13.770;2023-05-07T01:05:09;2.30;;;2.10;;
65751;SDS011;52486;51.098;13.770;2023-05-07T01:07:38;1.90;;;1.80;;
65751;SDS011;52486;51.098;13.770;2023-05-07T01:10:05;2.67;;;2.10;;
65751;SDS011;52486;51.098;13.770;2023-05-07T01:12:32;2.30;;;2.10;;
65751;SDS011;52486;51.098;13.770;2023-05-07T01:14:59;2.25;;;2.08;;
65751;SDS011;52486;51.098;13.770;2023-05-07T01:17:25;2.22;;;2.08;;
65751;SDS011;52486;51.098;13.770;2023-05-07T01:19:51;2.50;;;2.03;;
65751;SDS011;52486;51.098;13.770;2023-05-07T01:22:23;2.60;;;2.13;;
65751;SDS011;52486;51.098;13.770;2023-05-07T01:24:54;2.53;;;2.33;;
65751;SDS011;52486;51.098;13.770;2023-05-07T01:27:23;2.17;;;2.08;;
65751;SDS011;52486;51.098;13.770;2023-05-07T01:29:50;2.45;;;2.25;;
65751;SDS011;52486;51.098;13.770;2023-05-07T01:32:32;2.40;;;2.20;;
65751;SDS011;52486;51.098;13.770;2023-05-07T01:35:02;2.30;;;2.10;;
65751;SDS011;52486;51.098;13.770;2023-05-07T01:37:30;2.40;;;2.20;;
65751;SDS011;52486;51.098;13.770;2023-05-07T01:39:56;3.03;;;2.25;;
65751;SDS011;52486;51.098;13.770;2023-05-07T01:42:23;2.50;;;2.30;;
65751;SDS011;52486;51.098;13.770;2023-05-07T01:44:50;2.70;;;2.50;;
65751;SDS011;52486;51.098;13.770;2023-05-07T01:47:16;2.35;;;2.10;;
65751;SDS011;52486;51.098;13.770;2023-05-07T01:49:42;2.28;;;2.08;;
65751;SDS011;52486;51.098;13.770;2023-05-07T01:52:10;2.50;;;2.30;;
65751;SDS011;52486;51.098;13.770;2023-05-07T01:54:36;3.10;;;2.10;;
65751;SDS011;52486;51.098;13.770;2023-05-07T01:57:03;2.25;;;2.05;;
65751;SDS011;52486;51.098;13.770;2023-05-07T01:59:29;2.20;;;2.00;;
65751;SDS011;52486;51.098;13.770;2023-05-07T02:01:55;2.40;;;2.20;;
65751;SDS011;52486;51.098;13.770;2023-05-07T02:04:20;2.05;;;1.90;;
65751;SDS011;52486;51.098;13.770;2023-05-07T02:06:46;1.92;;;1.80;;
65751;SDS011;52486;51.098;13.770;2023-05-07T02:09:13;2.65;;;2.10;;
65751;SDS011;52486;51.098;13.770;2023-05-07T02:11:39;2.38;;;2.17;;
65751;SDS011;52486;51.098;13.770;2023-05-07T02:14:05;3.20;;;2.55;;
65751;SDS011;52486;51.098;13.770;2023-05-07T02:16:31;2.33;;;2.13;;
65751;SDS011;52486;51.098;13.770;2023-05-07T02:18:57;2.10;;;2.00;;
65751;SDS011;52486;51.098;13.770;2023-05-07T02:21:23;3.75;;;2.30;;
65751;SDS011;52486;51.098;13.770;2023-05-07T02:23:50;2.20;;;2.00;;
65751;SDS011;52486;51.098;13.770;2023-05-07T02:26:16;2.20;;;2.10;;
65751;SDS011;52486;51.098;13.770;2023-05-07T02:28:41;2.47;;;2.22;;
65751;SDS011;52486;51.098;13.770;2023-05-07T02:31:07;2.30;;;2.10;;
65751;SDS011;52486;51.098;13.770;2023-05-07T02:33:33;2.00;;;1.80;;
65751;SDS011;52486;51.098;13.770;2023-05-07T02:36:09;2.40;;;2.13;;
65751;SDS011;52486;51.098;13.770;2023-05-07T02:38:36;3.88;;;2.03;;
65751;SDS011;52486;51.098;13.770;2023-05-07T02:41:02;2.97;;;2.03;;
65751;SDS011;52486;51.098;13.770;2023-05-07T02:43:28;2.63;;;2.40;;
65751;SDS011;52486;51.098;13.770;2023-05-07T02:46:01;2.13;;;2.00;;
65751;SDS011;52486;51.098;13.770;2023-05-07T02:48:30;2.22;;;2.03;;
65751;SDS011;52486;51.098;13.770;2023-05-07T02:50:57;2.20;;;1.90;;
65751;SDS011;52486;51.098;13.770;2023-05-07T02:53:23;2.38;;;1.98;;
65751;SDS011;52486;51.098;13.770;2023-05-07T02:55:51;2.40;;;2.20;;
65751;SDS011;52486;51.098;13.770;2023-05-07T02:58:21;2.05;;;1.90;;
65751;SDS011;52486;51.098;13.770;2023-05-07T03:00:47;2.20;;;2.00;;
65751;SDS011;52486;51.098;13.770;2023-05-07T03:03:13;2.35;;;2.15;;
65751;SDS011;52486;51.098;13.770;2023-05-07T03:05:39;2.78;;;2.25;;
65751;SDS011;52486;51.098;13.770;2023-05-07T03:08:05;2.28;;;2.08;;
65751;SDS011;52486;51.098;13.770;2023-05-07T03:10:30;2.00;;;1.90;;
65751;SDS011;52486;51.098;13.770;2023-05-07T03:12:56;1.90;;;1.80;;
65751;SDS011;52486;51.098;13.770;2023-05-07T03:15:22;2.40;;;2.20;;
65751;SDS011;52486;51.098;13.770;2023-05-07T03:17:47;2.80;;;2.10;;
65751;SDS011;52486;51.098;13.770;2023-05-07T03:20:13;2.65;;;2.45;;
65751;SDS011;52486;51.098;13.770;2023-05-07T03:22:39;2.47;;;2.28;;
65751;SDS011;52486;51.098;13.770;2023-05-07T03:25:05;1.92;;;1.83;;
65751;SDS011;52486;51.098;13.770;2023-05-07T03:27:33;1.92;;;1.75;;
65751;SDS011;52486;51.098;13.770;2023-05-07T03:29:59;2.13;;;1.92;;
65751;SDS011;52486;51.098;13.770;2023-05-07T03:32:25;2.78;;;2.10;;
65751;SDS011;52486;51.098;13.770;2023-05-07T03:34:51;2.45;;;2.20;;
65751;SDS011;52486;51.098;13.770;2023-05-07T03:37:17;2.28;;;2.00;;
65751;SDS011;52486;51.098;13.770;2023-05-07T03:39:43;2.00;;;1.90;;
65751;SDS011;52486;51.098;13.770;2023-05-07T03:42:09;2.30;;;2.10;;
65751;SDS011;52486;51.098;13.770;2023-05-07T03:44:35;2.50;;;2.30;;
65751;SDS011;52486;51.098;13.770;2023-05-07T03:47:01;1.70;;;1.60;;
65751;SDS011;52486;51.098;13.770;2023-05-07T03:49:28;1.90;;;1.80;;
65751;SDS011;52486;51.098;13.770;2023-05-07T03:51:54;2.80;;;2.20;;
65751;SDS011;52486;51.098;13.770;2023-05-07T03:54:20;2.30;;;2.10;;
65751;SDS011;52486;51.098;13.770;2023-05-07T03:56:46;2.10;;;1.90;;
65751;SDS011;52486;51.098;13.770;2023-05-07T03:59:12;1.98;;;1.83;;
65751;SDS011;52486;51.098;13.770;2023-05-07T04:01:38;1.65;;;1.55;;
65751;SDS011;52486;51.098;13.770;2023-05-07T04:04:04;2.45;;;2.00;;
65751;SDS011;52486;51.098;13.770;2023-05-07T04:06:30;2.10;;;1.90;;
65751;SDS011;52486;51.098;13.770;2023-05-07T04:08:56;1.98;;;1.88;;
65751;SDS011;52486;51.098;13.770;2023-05-07T04:11:22;2.35;;;2.15;;
65751;SDS011;52486;51.098;13.770;2023-05-07T04:13:48;2.50;;;1.95;;
65751;SDS011;52486;51.098;13.770;2023-05-07T04:16:14;2.30;;;2.10;;
65751;SDS011;52486;51.098;13.770;2023-05-07T04:18:40;2.17;;;1.98;;
65751;SDS011;52486;51.098;13.770;2023-05-07T04:21:13;1.90;;;1.80;;
65751;SDS011;52486;51.098;13.770;2023-05-07T04:23:40;1.90;;;1.80;;
65751;SDS011;52486;51.098;13.770;2023-05-07T04:26:06;2.45;;;2.00;;
65751;SDS011;52486;51.098;13.770;2023-05-07T04:28:32;2.20;;;2.00;;
65751;SDS011;52486;51.098;13.770;2023-05-07T04:30:58;2.35;;;2.03;;
65751;SDS011;52486;51.098;13.770;2023-05-07T04:33:24;2.08;;;1.88;;
65751;SDS011;52486;51.098;13.770;2023-05-07T04:35:50;2.20;;;2.00;;
65751;SDS011;52486;51.098;13.770;2023-05-07T04:38:16;1.95;;;1.85;;
65751;SDS011;52486;51.098;13.770;2023-05-07T04:40:43;1.92;;;1.77;;
65751;SDS011;52486;51.098;13.770;2023-05-07T04:43:09;2.05;;;1.88;;
65751;SDS011;52486;51.098;13.770;2023-05-07T04:45:36;1.90;;;1.80;;
65751;SDS011;52486;51.098;13.770;2023-05-07T04:48:02;2.10;;;2.00;;
65751;SDS011;52486;51.098;13.770;2023-05-07T04:50:28;1.75;;;1.65;;
65751;SDS011;52486;51.098;13.770;2023-05-07T04:52:55;2.38;;;2.05;;
65751;SDS011;52486;51.098;13.770;2023-05-07T04:55:21;1.90;;;1.70;;
65751;SDS011;52486;51.098;13.770;2023-05-07T04:57:46;1.92;;;1.83;;
65751;SDS011;52486;51.098;13.770;2023-05-07T05:00:13;2.15;;;1.73;;
65751;SDS011;52486;51.098;13.770;2023-05-07T05:02:40;2.38;;;2.17;;
65751;SDS011;52486;51.098;13.770;2023-05-07T05:05:06;2.20;;;1.88;;
65751;SDS011;52486;51.098;13.770;2023-05-07T05:07:32;1.98;;;1.88;;
65751;SDS011;52486;51.098;13.770;2023-05-07T05:09:58;1.98;;;1.88;;
65751;SDS011;52486;51.098;13.770;2023-05-07T05:12:24;2.30;;;2.10;;
65751;SDS011;52486;51.098;13.770;2023-05-07T05:14:50;1.92;;;1.73;;
65751;SDS011;52486;51.098;13.770;2023-05-07T05:17:16;2.08;;;1.85;;
65751;SDS011;52486;51.098;13.770;2023-05-07T05:19:42;1.90;;;1.80;;
65751;SDS011;52486;51.098;13.770;2023-05-07T05:22:08;1.85;;;1.70;;
65751;SDS011;52486;51.098;13.770;2023-05-07T05:24:33;2.35;;;2.15;;
65751;SDS011;52486;51.098;13.770;2023-05-07T05:26:59;2.17;;;1.98;;
65751;SDS011;52486;51.098;13.770;2023-05-07T05:29:27;1.90;;;1.80;;
65751;SDS011;52486;51.098;13.770;2023-05-07T05:31:53;1.88;;;1.65;;
65751;SDS011;52486;51.098;13.770;2023-05-07T05:34:18;1.85;;;1.75;;
65751;SDS011;52486;51.098;13.770;2023-05-07T05:36:47;1.83;;;1.73;;
65751;SDS011;52486;51.098;13.770;2023-05-07T05:39:13;2.20;;;1.92;;
65751;SDS011;52486;51.098;13.770;2023-05-07T05:41:39;2.20;;;1.98;;
65751;SDS011;52486;51.098;13.770;2023-05-07T05:44:06;2.13;;;1.75;;
65751;SDS011;52486;51.098;13.770;2023-05-07T05:46:32;1.85;;;1.75;;
65751;SDS011;52486;51.098;13.770;2023-05-07T05:48:58;2.25;;;2.05;;
65751;SDS011;52486;51.098;13.770;2023-05-07T05:51:24;2.15;;;1.95;;
65751;SDS011;52486;51.098;13.770;2023-05-07T05:53:50;1.73;;;1.63;;
65751;SDS011;52486;51.098;13.770;2023-05-07T05:56:16;1.80;;;1.70;;
65751;SDS011;52486;51.098;13.770;2023-05-07T05:58:41;2.10;;;1.90;;
65751;SDS011;52486;51.098;13.770;2023-05-07T06:01:07;1.80;;;1.70;;
65751;SDS011;52486;51.098;13.770;2023-05-07T06:03:33;2.33;;;2.05;;
65751;SDS011;52486;51.098;13.770;2023-05-07T06:05:58;1.92;;;1.80;;
65751;SDS011;52486;51.098;13.770;2023-05-07T06:08:25;1.95;;;1.83;;
65751;SDS011;52486;51.098;13.770;2023-05-07T06:10:54;1.70;;;1.60;;
65751;SDS011;52486;51.098;13.770;2023-05-07T06:13:20;2.20;;;2.00;;
65751;SDS011;52486;51.098;13.770;2023-05-07T06:15:46;2.08;;;1.92;;
65751;SDS011;52486;51.098;13.770;2023-05-07T06:18:12;2.00;;;1.90;;
65751;SDS011;52486;51.098;13.770;2023-05-07T06:20:38;1.80;;;1.70;;
65751;SDS011;52486;51.098;13.770;2023-05-07T06:23:03;1.70;;;1.60;;
65751;SDS011;52486;51.098;13.770;2023-05-07T06:25:29;2.20;;;2.00;;
65751;SDS011;52486;51.098;13.770;2023-05-07T06:27:55;1.95;;;1.85;;
65751;SDS011;52486;51.098;13.770;2023-05-07T06:30:20;1.73;;;1.63;;
65751;SDS011;52486;51.098;13.770;2023-05-07T06:32:46;1.90;;;1.80;;
65751;SDS011;52486;51.098;13.770;2023-05-07T06:35:11;1.92;;;1.75;;
65751;SDS011;52486;51.098;13.770;2023-05-07T06:37:38;2.08;;;1.88;;
65751;SDS011;52486;51.098;13.770;2023-05-07T06:40:08;2.90;;;2.00;;
65751;SDS011;52486;51.098;13.770;2023-05-07T06:42:35;1.70;;;1.60;;
65751;SDS011;52486;51.098;13.770;2023-05-07T06:45:01;2.00;;;1.80;;
65751;SDS011;52486;51.098;13.770;2023-05-07T06:47:27;1.75;;;1.65;;
65751;SDS011;52486;51.098;13.770;2023-05-07T06:49:53;1.90;;;1.80;;
65751;SDS011;52486;51.098;13.770;2023-05-07T06:52:19;2.15;;;1.95;;
65751;SDS011;52486;51.098;13.770;2023-05-07T06:54:45;1.95;;;1.75;;
65751;SDS011;52486;51.098;13.770;2023-05-07T06:57:11;1.90;;;1.80;;
65751;SDS011;52486;51.098;13.770;2023-05-07T06:59:36;1.77;;;1.67;;
65751;SDS011;52486;51.098;13.770;2023-05-07T07:02:02;1.95;;;1.75;;
65751;SDS011;52486;51.098;13.770;2023-05-07T07:04:28;1.80;;;1.70;;
65751;SDS011;52486;51.098;13.770;2023-05-07T07:06:54;1.70;;;1.60;;
65751;SDS011;52486;51.098;13.770;2023-05-07T07:09:21;1.80;;;1.70;;
65751;SDS011;52486;51.098;13.770;2023-05-07T07:11:47;2.42;;;1.85;;
65751;SDS011;52486;51.098;13.770;2023-05-07T07:14:13;2.08;;;1.88;;
65751;SDS011;52486;51.098;13.770;2023-05-07T07:16:39;1.92;;;1.70;;
65751;SDS011;52486;51.098;13.770;2023-05-07T07:19:05;1.92;;;1.70;;
65751;SDS011;52486;51.098;13.770;2023-05-07T07:21:31;1.70;;;1.60;;
65751;SDS011;52486;51.098;13.770;2023-05-07T07:23:57;1.80;;;1.65;;
65751;SDS011;52486;51.098;13.770;2023-05-07T07:26:23;1.77;;;1.67;;
65751;SDS011;52486;51.098;13.770;2023-05-07T07:28:49;1.58;;;1.48;;
65751;SDS011;52486;51.098;13.770;2023-05-07T07:31:14;2.08;;;1.88;;
65751;SDS011;52486;51.098;13.770;2023-05-07T07:33:40;1.70;;;1.60;;
65751;SDS011;52486;51.098;13.770;2023-05-07T07:36:06;1.92;;;1.73;;
65751;SDS011;52486;51.098;13.770;2023-05-07T07:38:32;1.70;;;1.60;;
65751;SDS011;52486;51.098;13.770;2023-05-07T07:40:59;1.60;;;1.50;;
65751;SDS011;52486;51.098;13.770;2023-05-07T07:43:25;1.80;;;1.70;;
65751;SDS011;52486;51.098;13.770;2023-05-07T07:45:51;1.70;;;1.60;;
65751;SDS011;52486;51.098;13.770;2023-05-07T07:48:17;1.70;;;1.60;;
65751;SDS011;52486;51.098;13.770;2023-05-07T07:50:43;2.00;;;1.80;;
65751;SDS011;52486;51.098;13.770;2023-05-07T07:53:08;2.47;;;1.88;;
65751;SDS011;52486;51.098;13.770;2023-05-07T07:55:37;1.70;;;1.60;;
65751;SDS011;52486;51.098;13.770;2023-05-07T07:58:06;1.65;;;1.55;;
65751;SDS011;52486;51.098;13.770;2023-05-07T08:00:32;1.77;;;1.67;;
65751;SDS011;52486;51.098;13.770;2023-05-07T08:02:58;1.85;;;1.50;;
65751;SDS011;52486;51.098;13.770;2023-05-07T08:05:24;1.90;;;1.75;;
65751;SDS011;52486;51.098;13.770;2023-05-07T08:07:50;1.70;;;1.60;;
65751;SDS011;52486;51.098;13.770;2023-05-07T08:10:18;1.70;;;1.60;;
65751;SDS011;52486;51.098;13.770;2023-05-07T08:12:50;1.85;;;1.75;;
65751;SDS011;52486;51.098;13.770;2023-05-07T08:15:16;1.80;;;1.70;;
65751;SDS011;52486;51.098;13.770;2023-05-07T08:17:42;1.70;;;1.60;;
65751;SDS011;52486;51.098;13.770;2023-05-07T08:20:08;1.73;;;1.63;;
65751;SDS011;52486;51.098;13.770;2023-05-07T08:22:34;1.63;;;1.52;;
65751;SDS011;52486;51.098;13.770;2023-05-07T08:25:01;1.73;;;1.60;;
65751;SDS011;52486;51.098;13.770;2023-05-07T08:27:27;1.70;;;1.60;;
65751;SDS011;52486;51.098;13.770;2023-05-07T08:29:53;2.13;;;1.70;;
65751;SDS011;52486;51.098;13.770;2023-05-07T08:32:20;1.50;;;1.40;;
65751;SDS011;52486;51.098;13.770;2023-05-07T08:34:49;1.52;;;1.42;;
65751;SDS011;52486;51.098;13.770;2023-05-07T08:37:19;1.60;;;1.50;;
65751;SDS011;52486;51.098;13.770;2023-05-07T08:39:46;3.20;;;1.90;;
65751;SDS011;52486;51.098;13.770;2023-05-07T08:42:12;1.73;;;1.50;;
65751;SDS011;52486;51.098;13.770;2023-05-07T08:44:40;3.88;;;1.58;;
65751;SDS011;52486;51.098;13.770;2023-05-07T08:47:10;1.90;;;1.70;;
65751;SDS011;52486;51.098;13.770;2023-05-07T08:49:36;1.70;;;1.42;;
65751;SDS011;52486;51.098;13.770;2023-05-07T08:52:02;1.58;;;1.48;;
65751;SDS011;52486;51.098;13.770;2023-05-07T08:54:28;1.60;;;1.50;;
65751;SDS011;52486;51.098;13.770;2023-05-07T08:56:54;1.80;;;1.70;;
65751;SDS011;52486;51.098;13.770;2023-05-07T08:59:20;1.50;;;1.40;;
65751;SDS011;52486;51.098;13.770;2023-05-07T09:01:46;1.48;;;1.38;;
65751;SDS011;52486;51.098;13.770;2023-05-07T09:04:12;1.50;;;1.40;;
65751;SDS011;52486;51.098;13.770;2023-05-07T09:06:38;1.73;;;1.55;;
65751;SDS011;52486;51.098;13.770;2023-05-07T09:09:07;1.70;;;1.60;;
65751;SDS011;52486;51.098;13.770;2023-05-07T09:11:32;1.50;;;1.40;;
65751;SDS011;52486;51.098;13.770;2023-05-07T09:13:58;1.63;;;1.52;;
65751;SDS011;52486;51.098;13.770;2023-05-07T09:16:26;1.88;;;1.55;;
65751;SDS011;52486;51.098;13.770;2023-05-07T09:18:53;1.50;;;1.40;;
65751;SDS011;52486;51.098;13.770;2023-05-07T09:21:20;1.58;;;1.48;;
65751;SDS011;52486;51.098;13.770;2023-05-07T09:23:48;1.40;;;1.30;;
65751;SDS011;52486;51.098;13.770;2023-05-07T09:26:15;1.60;;;1.50;;
65751;SDS011;52486;51.098;13.770;2023-05-07T09:28:41;1.42;;;1.33;;
65751;SDS011;52486;51.098;13.770;2023-05-07T09:31:08;1.38;;;1.27;;
65751;SDS011;52486;51.098;13.770;2023-05-07T09:33:34;1.60;;;1.50;;
65751;SDS011;52486;51.098;13.770;2023-05-07T09:36:03;1.30;;;1.20;;
65751;SDS011;52486;51.098;13.770;2023-05-07T09:38:30;1.77;;;1.50;;
65751;SDS011;52486;51.098;13.770;2023-05-07T09:41:01;1.30;;;1.20;;
65751;SDS011;52486;51.098;13.770;2023-05-07T09:43:35;1.80;;;1.60;;
65751;SDS011;52486;51.098;13.770;2023-05-07T09:46:25;1.50;;;1.20;;
65751;SDS011;52486;51.098;13.770;2023-05-07T09:48:52;1.50;;;1.40;;
65751;SDS011;52486;51.098;13.770;2023-05-07T09:51:24;1.63;;;1.53;;
65751;SDS011;52486;51.098;13.770;2023-05-07T09:53:54;1.35;;;1.25;;
65751;SDS011;52486;51.098;13.770;2023-05-07T09:56:21;1.60;;;1.50;;
65751;SDS011;52486;51.098;13.770;2023-05-07T09:58:48;1.50;;;1.40;;
65751;SDS011;52486;51.098;13.770;2023-05-07T10:01:16;1.60;;;1.50;;
65751;SDS011;52486;51.098;13.770;2023-05-07T10:03:44;1.40;;;1.30;;
65751;SDS011;52486;51.098;13.770;2023-05-07T10:06:11;1.38;;;1.27;;
65751;SDS011;52486;51.098;13.770;2023-05-07T10:08:39;1.60;;;1.50;;
65751;SDS011;52486;51.098;13.770;2023-05-07T10:11:05;1.38;;;1.27;;
65751;SDS011;52486;51.098;13.770;2023-05-07T10:13:34;1.50;;;1.40;;
65751;SDS011;52486;51.098;13.770;2023-05-07T10:16:03;1.67;;;1.58;;
65751;SDS011;52486;51.098;13.770;2023-05-07T10:18:30;1.80;;;1.40;;
65751;SDS011;52486;51.098;13.770;2023-05-07T10:21:07;1.40;;;1.30;;
65751;SDS011;52486;51.098;13.770;2023-05-07T10:23:36;1.40;;;1.30;;
65751;SDS011;52486;51.098;13.770;2023-05-07T10:26:04;1.60;;;1.50;;
65751;SDS011;52486;51.098;13.770;2023-05-07T10:28:32;1.50;;;1.40;;
65751;SDS011;52486;51.098;13.770;2023-05-07T10:33:46;1.60;;;1.50;;
65751;SDS011;52486;51.098;13.770;2023-05-07T10:36:16;1.60;;;1.50;;
65751;SDS011;52486;51.098;13.770;2023-05-07T10:38:43;1.80;;;1.50;;
65751;SDS011;52486;51.098;13.770;2023-05-07T10:41:10;1.58;;;1.48;;
65751;SDS011;52486;51.098;13.770;2023-05-07T10:43:40;1.42;;;1.30;;
65751;SDS011;52486;51.098;13.770;2023-05-07T10:51:29;1.70;;;1.60;;
65751;SDS011;52486;51.098;13.770;2023-05-07T10:56:38;1.60;;;1.50;;
65751;SDS011;52486;51.098;13.770;2023-05-07T11:02:06;1.70;;;1.60;;
65751;SDS011;52486;51.098;13.770;2023-05-07T11:04:35;1.30;;;1.20;;
65751;SDS011;52486;51.098;13.770;2023-05-07T11:09:55;1.40;;;1.30;;
65751;SDS011;52486;51.098;13.770;2023-05-07T11:15:05;1.67;;;1.48;;
65751;SDS011;52486;51.098;13.770;2023-05-07T11:17:54;1.67;;;1.58;;
65751;SDS011;52486;51.098;13.770;2023-05-07T11:20:20;1.40;;;1.30;;
65751;SDS011;52486;51.098;13.770;2023-05-07T11:22:46;1.65;;;1.55;;
65751;SDS011;52486;51.098;13.770;2023-05-07T11:25:19;1.40;;;1.30;;
65751;SDS011;52486;51.098;13.770;2023-05-07T11:27:44;1.20;;;1.20;;
65751;SDS011;52486;51.098;13.770;2023-05-07T11:30:16;2.25;;;1.20;;
65751;SDS011;52486;51.098;13.770;2023-05-07T11:32:44;1.50;;;1.40;;
65751;SDS011;52486;51.098;13.770;2023-05-07T11:35:12;1.55;;;1.45;;
65751;SDS011;52486;51.098;13.770;2023-05-07T11:37:40;1.60;;;1.50;;
65751;SDS011;52486;51.098;13.770;2023-05-07T11:40:07;1.48;;;1.40;;
65751;SDS011;52486;51.098;13.770;2023-05-07T11:42:36;1.70;;;1.60;;
65751;SDS011;52486;51.098;13.770;2023-05-07T11:45:03;1.60;;;1.50;;
65751;SDS011;52486;51.098;13.770;2023-05-07T11:47:29;1.67;;;1.50;;
65751;SDS011;52486;51.098;13.770;2023-05-07T11:49:56;1.42;;;1.33;;
65751;SDS011;52486;51.098;13.770;2023-05-07T11:52:23;1.67;;;1.58;;
65751;SDS011;52486;51.098;13.770;2023-05-07T11:57:15;1.50;;;1.40;;
65751;SDS011;52486;51.098;13.770;2023-05-07T11:59:41;1.15;;;1.10;;
65751;SDS011;52486;51.098;13.770;2023-05-07T12:02:09;1.48;;;1.38;;
65751;SDS011;52486;51.098;13.770;2023-05-07T12:04:35;1.50;;;1.40;;
65751;SDS011;52486;51.098;13.770;2023-05-07T12:07:03;1.50;;;1.40;;
65751;SDS011;52486;51.098;13.770;2023-05-07T12:09:28;1.50;;;1.40;;
65751;SDS011;52486;51.098;13.770;2023-05-07T12:11:54;1.90;;;1.80;;
65751;SDS011;52486;51.098;13.770;2023-05-07T12:14:21;1.60;;;1.50;;
65751;SDS011;52486;51.098;13.770;2023-05-07T12:16:47;2.05;;;1.38;;
65751;SDS011;52486;51.098;13.770;2023-05-07T12:19:13;1.25;;;1.25;;
65751;SDS011;52486;51.098;13.770;2023-05-07T12:21:39;1.50;;;1.40;;
65751;SDS011;52486;51.098;13.770;2023-05-07T12:24:05;1.60;;;1.48;;
65751;SDS011;52486;51.098;13.770;2023-05-07T12:26:31;1.58;;;1.48;;
65751;SDS011;52486;51.098;13.770;2023-05-07T12:28:57;1.48;;;1.38;;
65751;SDS011;52486;51.098;13.770;2023-05-07T12:31:25;1.70;;;1.60;;
65751;SDS011;52486;51.098;13.770;2023-05-07T12:33:51;1.58;;;1.48;;
65751;SDS011;52486;51.098;13.770;2023-05-07T12:36:17;1.58;;;1.48;;
65751;SDS011;52486;51.098;13.770;2023-05-07T12:38:43;1.80;;;1.67;;
65751;SDS011;52486;51.098;13.770;2023-05-07T12:41:09;1.60;;;1.50;;
65751;SDS011;52486;51.098;13.770;2023-05-07T12:43:35;1.33;;;1.23;;
65751;SDS011;52486;51.098;13.770;2023-05-07T12:46:05;1.58;;;1.48;;
65751;SDS011;52486;51.098;13.770;2023-05-07T12:48:32;1.20;;;1.20;;
65751;SDS011;52486;51.098;13.770;2023-05-07T12:51:01;1.50;;;1.40;;
65751;SDS011;52486;51.098;13.770;2023-05-07T12:53:28;1.58;;;1.48;;
65751;SDS011;52486;51.098;13.770;2023-05-07T12:55:56;1.50;;;1.40;;
65751;SDS011;52486;51.098;13.770;2023-05-07T12:58:24;1.50;;;1.40;;
65751;SDS011;52486;51.098;13.770;2023-05-07T13:00:51;1.70;;;1.40;;
65751;SDS011;52486;51.098;13.770;2023-05-07T13:03:38;1.27;;;1.20;;
65751;SDS011;52486;51.098;13.770;2023-05-07T13:06:04;1.40;;;1.30;;
65751;SDS011;52486;51.098;13.770;2023-05-07T13:08:32;1.30;;;1.20;;
65751;SDS011;52486;51.098;13.770;2023-05-07T13:11:00;1.40;;;1.30;;
65751;SDS011;52486;51.098;13.770;2023-05-07T13:15:56;1.52;;;1.42;;
65751;SDS011;52486;51.098;13.770;2023-05-07T13:18:24;1.38;;;1.27;;
65751;SDS011;52486;51.098;13.770;2023-05-07T13:20:50;1.40;;;1.30;;
65751;SDS011;52486;51.098;13.770;2023-05-07T13:23:16;1.50;;;1.40;;
65751;SDS011;52486;51.098;13.770;2023-05-07T13:25:42;1.60;;;1.50;;
65751;SDS011;52486;51.098;13.770;2023-05-07T13:28:08;1.55;;;1.45;;
65751;SDS011;52486;51.098;13.770;2023-05-07T13:30:34;1.52;;;1.42;;
65751;SDS011;52486;51.098;13.770;2023-05-07T13:32:59;1.73;;;1.30;;
65751;SDS011;52486;51.098;13.770;2023-05-07T13:35:25;1.58;;;1.40;;
65751;SDS011;52486;51.098;13.770;2023-05-07T13:37:52;1.50;;;1.40;;
65751;SDS011;52486;51.098;13.770;2023-05-07T13:40:19;1.45;;;1.35;;
65751;SDS011;52486;51.098;13.770;2023-05-07T13:42:45;1.77;;;1.35;;
65751;SDS011;52486;51.098;13.770;2023-05-07T13:45:11;1.40;;;1.30;;
65751;SDS011;52486;51.098;13.770;2023-05-07T13:47:39;2.00;;;1.90;;
65751;SDS011;52486;51.098;13.770;2023-05-07T13:50:06;1.80;;;1.70;;
65751;SDS011;52486;51.098;13.770;2023-05-07T13:55:02;1.70;;;1.60;;
65751;SDS011;52486;51.098;13.770;2023-05-07T13:57:28;1.92;;;1.83;;
65751;SDS011;52486;51.098;13.770;2023-05-07T13:59:54;2.78;;;1.55;;
65751;SDS011;52486;51.098;13.770;2023-05-07T14:02:20;1.80;;;1.52;;
65751;SDS011;52486;51.098;13.770;2023-05-07T14:04:46;1.77;;;1.67;;
65751;SDS011;52486;51.098;13.770;2023-05-07T14:07:12;2.35;;;1.65;;
65751;SDS011;52486;51.098;13.770;2023-05-07T14:09:38;2.00;;;1.88;;
65751;SDS011;52486;51.098;13.770;2023-05-07T14:12:03;3.55;;;1.80;;
65751;SDS011;52486;51.098;13.770;2023-05-07T14:14:29;3.08;;;1.63;;
65751;SDS011;52486;51.098;13.770;2023-05-07T14:16:55;1.80;;;1.70;;
65751;SDS011;52486;51.098;13.770;2023-05-07T14:19:21;3.78;;;1.70;;
65751;SDS011;52486;51.098;13.770;2023-05-07T14:21:47;1.73;;;1.63;;
65751;SDS011;52486;51.098;13.770;2023-05-07T14:24:13;1.63;;;1.52;;
65751;SDS011;52486;51.098;13.770;2023-05-07T14:26:40;1.50;;;1.40;;
65751;SDS011;52486;51.098;13.770;2023-05-07T14:29:05;1.85;;;1.75;;
65751;SDS011;52486;51.098;13.770;2023-05-07T14:31:31;1.73;;;1.63;;
65751;SDS011;52486;51.098;13.770;2023-05-07T14:33:58;1.90;;;1.80;;
65751;SDS011;52486;51.098;13.770;2023-05-07T14:36:24;1.77;;;1.67;;
65751;SDS011;52486;51.098;13.770;2023-05-07T14:38:51;1.77;;;1.50;;
65751;SDS011;52486;51.098;13.770;2023-05-07T14:41:19;1.67;;;1.52;;
65751;SDS011;52486;51.098;13.770;2023-05-07T14:43:46;2.00;;;1.80;;
65751;SDS011;52486;51.098;13.770;2023-05-07T14:46:17;2.00;;;1.63;;
65751;SDS011;52486;51.098;13.770;2023-05-07T14:48:44;1.70;;;1.60;;
65751;SDS011;52486;51.098;13.770;2023-05-07T14:51:11;1.50;;;1.40;;
65751;SDS011;52486;51.098;13.770;2023-05-07T14:53:37;1.60;;;1.50;;
65751;SDS011;52486;51.098;13.770;2023-05-07T14:56:03;1.50;;;1.40;;
65751;SDS011;52486;51.098;13.770;2023-05-07T14:58:30;1.33;;;1.30;;